sensor_id;sensor_type;location;lat;lon;timestamp;pressure;altitude;pressure_sealevel;temperature;humidity
59391;BME280;53405;57.012;40.984;2023-02-10T00:02:23;101146.75;;;-1.72;82.81
59391;BME280;53405;57.012;40.984;2023-02-10T00:05:11;101128.59;;;-1.90;82.62
59391;BME280;53405;57.012;40.984;2023-02-10T00:07:59;101141.38;;;-1.68;82.13
59391;BME280;53405;57.012;40.984;2023-02-10T00:10:46;101130.28;;;-1.89;82.47
59391;BME280;53405;57.012;40.984;2023-02-10T00:13:33;101127.41;;;-1.83;82.94
59391;BME280;53405;57.012;40.984;2023-02-10T00:16:21;101124.53;;;-1.57;82.42
59391;BME280;53405;57.012;40.984;2023-02-10T00:19:08;101117.41;;;-1.52;82.42
59391;BME280;53405;57.012;40.984;2023-02-10T00:21:57;101121.97;;;-1.57;82.07
59391;BME280;53405;57.012;40.984;2023-02-10T00:24:44;101120.75;;;-1.69;81.83
59391;BME280;53405;57.012;40.984;2023-02-10T00:27:32;101111.19;;;-1.67;82.22
59391;BME280;53405;57.012;40.984;2023-02-10T00:30:19;101108.91;;;-1.73;81.96
59391;BME280;53405;57.012;40.984;2023-02-10T00:33:06;101108.19;;;-1.58;82.55
59391;BME280;53405;57.012;40.984;2023-02-10T00:35:54;101088.81;;;-1.67;82.00
59391;BME280;53405;57.012;40.984;2023-02-10T00:38:44;101101.69;;;-1.48;81.89
59391;BME280;53405;57.012;40.984;2023-02-10T00:41:31;101106.88;;;-1.67;81.44
59391;BME280;53405;57.012;40.984;2023-02-10T00:44:19;101100.94;;;-1.50;80.95
59391;BME280;53405;57.012;40.984;2023-02-10T00:47:06;101093.22;;;-1.69;81.05
59391;BME280;53405;57.012;40.984;2023-02-10T00:49:54;101077.22;;;-1.77;81.72
59391;BME280;53405;57.012;40.984;2023-02-10T00:52:41;101067.75;;;-1.76;81.88
59391;BME280;53405;57.012;40.984;2023-02-10T00:55:29;101067.16;;;-1.83;81.95
59391;BME280;53405;57.012;40.984;2023-02-10T00:58:16;101055.66;;;-1.76;81.87
59391;BME280;53405;57.012;40.984;2023-02-10T01:01:04;101058.03;;;-1.71;81.95
59391;BME280;53405;57.012;40.984;2023-02-10T01:03:52;101049.31;;;-1.69;81.87
59391;BME280;53405;57.012;40.984;2023-02-10T01:06:40;101043.72;;;-1.78;81.62
59391;BME280;53405;57.012;40.984;2023-02-10T01:09:27;101050.38;;;-1.92;81.54
59391;BME280;53405;57.012;40.984;2023-02-10T01:12:16;101051.63;;;-2.01;82.12
59391;BME280;53405;57.012;40.984;2023-02-10T01:15:03;101055.28;;;-2.05;82.58
59391;BME280;53405;57.012;40.984;2023-02-10T01:17:52;101039.91;;;-1.89;82.06
59391;BME280;53405;57.012;40.984;2023-02-10T01:20:41;101034.06;;;-1.92;82.45
59391;BME280;53405;57.012;40.984;2023-02-10T01:23:29;101024.22;;;-2.03;81.86
59391;BME280;53405;57.012;40.984;2023-02-10T01:26:19;101006.25;;;-2.24;82.85
59391;BME280;53405;57.012;40.984;2023-02-10T01:29:06;101020.09;;;-2.07;82.87
59391;BME280;53405;57.012;40.984;2023-02-10T01:31:54;101010.03;;;-1.94;83.27
59391;BME280;53405;57.012;40.984;2023-02-10T01:34:41;101010.03;;;-1.94;82.28
59391;BME280;53405;57.012;40.984;2023-02-10T01:37:29;100999.31;;;-2.04;82.53
59391;BME280;53405;57.012;40.984;2023-02-10T01:40:16;100995.97;;;-2.06;83.64
59391;BME280;53405;57.012;40.984;2023-02-10T01:43:15;100987.38;;;-1.70;82.17
59391;BME280;53405;57.012;40.984;2023-02-10T01:46:02;101003.94;;;-1.74;80.73
59391;BME280;53405;57.012;40.984;2023-02-10T01:48:51;100969.41;;;-1.91;81.30
59391;BME280;53405;57.012;40.984;2023-02-10T01:51:50;100987.56;;;-1.92;82.49
59391;BME280;53405;57.012;40.984;2023-02-10T01:54:47;100994.06;;;-1.66;81.27
59391;BME280;53405;57.012;40.984;2023-02-10T01:57:38;100956.41;;;-1.89;81.15
59391;BME280;53405;57.012;40.984;2023-02-10T02:00:27;100967.63;;;-1.71;82.44
59391;BME280;53405;57.012;40.984;2023-02-10T02:03:16;100950.13;;;-1.84;81.34
59391;BME280;53405;57.012;40.984;2023-02-10T02:06:04;100957.28;;;-1.71;81.68
59391;BME280;53405;57.012;40.984;2023-02-10T02:08:52;100953.50;;;-1.47;81.25
59391;BME280;53405;57.012;40.984;2023-02-10T02:12:02;100949.63;;;-1.73;81.57
59391;BME280;53405;57.012;40.984;2023-02-10T02:15:02;100937.16;;;-1.82;82.29
59391;BME280;53405;57.012;40.984;2023-02-10T02:18:02;100942.47;;;-1.68;80.73
59391;BME280;53405;57.012;40.984;2023-02-10T02:24:06;100934.19;;;-1.92;82.20
59391;BME280;53405;57.012;40.984;2023-02-10T02:33:49;100923.41;;;-1.83;81.09
59391;BME280;53405;57.012;40.984;2023-02-10T02:36:36;100916.47;;;-1.82;81.28
59391;BME280;53405;57.012;40.984;2023-02-10T02:39:28;100922.31;;;-1.96;81.67
59391;BME280;53405;57.012;40.984;2023-02-10T02:42:21;100893.63;;;-1.90;80.50
59391;BME280;53405;57.012;40.984;2023-02-10T02:45:19;100886.56;;;-1.69;79.60
59391;BME280;53405;57.012;40.984;2023-02-10T02:51:39;100899.50;;;-1.69;80.27
59391;BME280;53405;57.012;40.984;2023-02-10T02:54:52;100896.28;;;-1.74;79.58
59391;BME280;53405;57.012;40.984;2023-02-10T02:57:48;100877.22;;;-2.06;81.43
59391;BME280;53405;57.012;40.984;2023-02-10T03:00:40;100879.81;;;-1.89;81.48
59391;BME280;53405;57.012;40.984;2023-02-10T03:03:29;100872.88;;;-1.88;80.79
59391;BME280;53405;57.012;40.984;2023-02-10T03:06:17;100872.13;;;-1.73;80.41
59391;BME280;53405;57.012;40.984;2023-02-10T03:09:04;100862.25;;;-1.82;80.55
59391;BME280;53405;57.012;40.984;2023-02-10T03:11:52;100847.53;;;-1.97;79.87
59391;BME280;53405;57.012;40.984;2023-02-10T03:14:39;100851.19;;;-1.84;80.45
59391;BME280;53405;57.012;40.984;2023-02-10T03:17:27;100841.53;;;-2.15;81.20
59391;BME280;53405;57.012;40.984;2023-02-10T03:20:14;100831.44;;;-2.03;81.03
59391;BME280;53405;57.012;40.984;2023-02-10T03:23:02;100822.31;;;-2.10;81.17
59391;BME280;53405;57.012;40.984;2023-02-10T03:25:50;100841.06;;;-1.89;80.03
59391;BME280;53405;57.012;40.984;2023-02-10T03:28:37;100832.88;;;-1.79;81.52
59391;BME280;53405;57.012;40.984;2023-02-10T03:31:25;100833.25;;;-1.87;79.71
59391;BME280;53405;57.012;40.984;2023-02-10T03:34:13;100833.00;;;-1.65;79.15
59391;BME280;53405;57.012;40.984;2023-02-10T03:37:01;100823.31;;;-1.95;78.32
59391;BME280;53405;57.012;40.984;2023-02-10T03:39:48;100816.53;;;-1.97;78.69
59391;BME280;53405;57.012;40.984;2023-02-10T03:42:36;100807.81;;;-1.95;79.30
59391;BME280;53405;57.012;40.984;2023-02-10T03:45:24;100783.59;;;-1.92;80.13
59391;BME280;53405;57.012;40.984;2023-02-10T03:48:12;100775.59;;;-1.88;78.81
59391;BME280;53405;57.012;40.984;2023-02-10T03:51:01;100776.66;;;-1.74;79.36
59391;BME280;53405;57.012;40.984;2023-02-10T03:53:49;100803.84;;;-1.85;78.68
59391;BME280;53405;57.012;40.984;2023-02-10T03:56:36;100778.25;;;-1.89;78.89
59391;BME280;53405;57.012;40.984;2023-02-10T03:59:23;100779.09;;;-1.89;79.37
59391;BME280;53405;57.012;40.984;2023-02-10T04:02:12;100758.75;;;-1.95;79.22
59391;BME280;53405;57.012;40.984;2023-02-10T04:04:59;100767.16;;;-2.25;80.27
59391;BME280;53405;57.012;40.984;2023-02-10T04:07:49;100758.88;;;-2.14;81.31
59391;BME280;53405;57.012;40.984;2023-02-10T04:10:36;100770.91;;;-2.14;79.81
59391;BME280;53405;57.012;40.984;2023-02-10T04:13:24;100761.88;;;-2.06;79.88
59391;BME280;53405;57.012;40.984;2023-02-10T04:16:13;100745.56;;;-2.06;80.11
59391;BME280;53405;57.012;40.984;2023-02-10T04:19:01;100747.63;;;-2.13;80.08
59391;BME280;53405;57.012;40.984;2023-02-10T04:21:49;100738.84;;;-2.44;80.14
59391;BME280;53405;57.012;40.984;2023-02-10T04:24:36;100751.97;;;-2.48;81.29
59391;BME280;53405;57.012;40.984;2023-02-10T04:27:24;100738.16;;;-2.30;80.93
59391;BME280;53405;57.012;40.984;2023-02-10T04:30:11;100742.84;;;-2.38;81.20
59391;BME280;53405;57.012;40.984;2023-02-10T04:32:59;100748.56;;;-2.31;81.51
59391;BME280;53405;57.012;40.984;2023-02-10T04:35:48;100721.59;;;-2.26;80.74
59391;BME280;53405;57.012;40.984;2023-02-10T04:38:36;100739.38;;;-2.37;81.52
59391;BME280;53405;57.012;40.984;2023-02-10T04:41:23;100734.44;;;-2.42;82.30
59391;BME280;53405;57.012;40.984;2023-02-10T04:44:11;100723.34;;;-2.26;82.20
59391;BME280;53405;57.012;40.984;2023-02-10T04:46:59;100721.28;;;-2.20;82.08
59391;BME280;53405;57.012;40.984;2023-02-10T04:49:46;100713.84;;;-2.26;81.27
59391;BME280;53405;57.012;40.984;2023-02-10T04:52:34;100706.19;;;-2.27;81.79
59391;BME280;53405;57.012;40.984;2023-02-10T04:55:21;100705.97;;;-2.23;81.26
59391;BME280;53405;57.012;40.984;2023-02-10T04:58:09;100694.97;;;-2.26;81.75
59391;BME280;53405;57.012;40.984;2023-02-10T05:00:56;100680.44;;;-2.11;81.53
59391;BME280;53405;57.012;40.984;2023-02-10T05:03:44;100684.56;;;-1.91;80.40
59391;BME280;53405;57.012;40.984;2023-02-10T05:06:32;100686.91;;;-1.71;78.85
59391;BME280;53405;57.012;40.984;2023-02-10T05:09:19;100685.81;;;-1.98;78.73
59391;BME280;53405;57.012;40.984;2023-02-10T05:12:07;100687.28;;;-2.10;80.02
59391;BME280;53405;57.012;40.984;2023-02-10T05:14:54;100672.06;;;-1.99;79.59
59391;BME280;53405;57.012;40.984;2023-02-10T05:17:42;100676.72;;;-2.06;79.99
59391;BME280;53405;57.012;40.984;2023-02-10T05:20:30;100673.38;;;-2.08;78.47
59391;BME280;53405;57.012;40.984;2023-02-10T05:23:17;100675.88;;;-2.06;79.50
59391;BME280;53405;57.012;40.984;2023-02-10T05:26:05;100662.72;;;-2.17;79.99
59391;BME280;53405;57.012;40.984;2023-02-10T05:28:53;100666.16;;;-2.01;79.79
59391;BME280;53405;57.012;40.984;2023-02-10T05:31:41;100652.53;;;-2.21;78.86
59391;BME280;53405;57.012;40.984;2023-02-10T05:34:29;100668.53;;;-2.14;79.24
59391;BME280;53405;57.012;40.984;2023-02-10T05:37:16;100643.94;;;-2.21;78.36
59391;BME280;53405;57.012;40.984;2023-02-10T05:40:04;100666.22;;;-2.03;78.54
59391;BME280;53405;57.012;40.984;2023-02-10T05:42:52;100655.13;;;-2.21;78.86
59391;BME280;53405;57.012;40.984;2023-02-10T05:45:39;100662.09;;;-2.23;79.32
59391;BME280;53405;57.012;40.984;2023-02-10T05:48:29;100664.59;;;-2.21;80.02
59391;BME280;53405;57.012;40.984;2023-02-10T05:51:16;100648.16;;;-1.87;79.09
59391;BME280;53405;57.012;40.984;2023-02-10T05:54:03;100626.84;;;-1.90;80.04
59391;BME280;53405;57.012;40.984;2023-02-10T05:56:51;100623.00;;;-1.99;79.24
59391;BME280;53405;57.012;40.984;2023-02-10T05:59:39;100642.75;;;-1.82;78.80
59391;BME280;53405;57.012;40.984;2023-02-10T06:02:28;100646.66;;;-1.91;79.10
59391;BME280;53405;57.012;40.984;2023-02-10T06:05:16;100637.34;;;-1.93;78.94
59391;BME280;53405;57.012;40.984;2023-02-10T06:08:04;100640.16;;;-2.14;79.22
59391;BME280;53405;57.012;40.984;2023-02-10T06:10:52;100639.72;;;-2.22;81.51
59391;BME280;53405;57.012;40.984;2023-02-10T06:13:40;100623.94;;;-2.00;81.24
59391;BME280;53405;57.012;40.984;2023-02-10T06:16:29;100620.06;;;-2.09;79.67
59391;BME280;53405;57.012;40.984;2023-02-10T06:19:16;100624.84;;;-2.01;78.42
59391;BME280;53405;57.012;40.984;2023-02-10T06:22:07;100624.75;;;-2.15;79.77
59391;BME280;53405;57.012;40.984;2023-02-10T06:24:54;100628.88;;;-2.13;78.92
59391;BME280;53405;57.012;40.984;2023-02-10T06:27:44;100613.41;;;-2.13;78.62
59391;BME280;53405;57.012;40.984;2023-02-10T06:30:32;100611.16;;;-2.19;78.49
59391;BME280;53405;57.012;40.984;2023-02-10T06:33:19;100600.72;;;-2.33;78.17
59391;BME280;53405;57.012;40.984;2023-02-10T06:36:08;100581.41;;;-2.42;79.29
59391;BME280;53405;57.012;40.984;2023-02-10T06:38:56;100583.28;;;-2.12;80.27
59391;BME280;53405;57.012;40.984;2023-02-10T06:41:43;100578.94;;;-2.12;80.16
59391;BME280;53405;57.012;40.984;2023-02-10T06:44:31;100585.75;;;-2.27;78.68
59391;BME280;53405;57.012;40.984;2023-02-10T06:47:18;100572.53;;;-2.21;78.24
59391;BME280;53405;57.012;40.984;2023-02-10T06:50:06;100557.56;;;-2.14;77.32
59391;BME280;53405;57.012;40.984;2023-02-10T06:52:53;100549.31;;;-2.05;77.17
59391;BME280;53405;57.012;40.984;2023-02-10T06:55:41;100558.22;;;-2.10;76.67
59391;BME280;53405;57.012;40.984;2023-02-10T06:58:28;100535.88;;;-2.11;77.31
59391;BME280;53405;57.012;40.984;2023-02-10T07:01:17;100549.91;;;-2.00;77.41
59391;BME280;53405;57.012;40.984;2023-02-10T07:04:05;100534.41;;;-2.00;77.76
59391;BME280;53405;57.012;40.984;2023-02-10T07:06:53;100536.81;;;-1.80;75.10
59391;BME280;53405;57.012;40.984;2023-02-10T07:09:40;100533.75;;;-2.03;75.21
59391;BME280;53405;57.012;40.984;2023-02-10T07:12:28;100533.41;;;-1.97;74.34
59391;BME280;53405;57.012;40.984;2023-02-10T07:15:15;100531.75;;;-2.14;74.46
59391;BME280;53405;57.012;40.984;2023-02-10T07:18:05;100534.47;;;-2.33;75.41
59391;BME280;53405;57.012;40.984;2023-02-10T07:20:52;100528.63;;;-2.37;75.42
59391;BME280;53405;57.012;40.984;2023-02-10T07:23:40;100537.38;;;-2.39;74.71
59391;BME280;53405;57.012;40.984;2023-02-10T07:26:29;100527.66;;;-2.34;74.62
59391;BME280;53405;57.012;40.984;2023-02-10T07:29:16;100515.00;;;-2.07;74.03
59391;BME280;53405;57.012;40.984;2023-02-10T07:32:04;100508.59;;;-2.15;74.48
59391;BME280;53405;57.012;40.984;2023-02-10T07:34:52;100518.34;;;-2.21;74.58
59391;BME280;53405;57.012;40.984;2023-02-10T07:37:39;100510.00;;;-2.26;75.69
59391;BME280;53405;57.012;40.984;2023-02-10T07:40:27;100499.50;;;-2.07;74.64
59391;BME280;53405;57.012;40.984;2023-02-10T07:43:16;100486.34;;;-2.02;74.07
59391;BME280;53405;57.012;40.984;2023-02-10T07:46:11;100485.66;;;-1.90;74.95
59391;BME280;53405;57.012;40.984;2023-02-10T07:48:58;100491.94;;;-1.94;74.14
59391;BME280;53405;57.012;40.984;2023-02-10T07:51:46;100461.72;;;-2.08;74.79
59391;BME280;53405;57.012;40.984;2023-02-10T07:54:33;100485.72;;;-1.75;72.56
59391;BME280;53405;57.012;40.984;2023-02-10T07:57:21;100501.00;;;-1.87;73.37
59391;BME280;53405;57.012;40.984;2023-02-10T08:00:09;100471.66;;;-2.16;73.45
59391;BME280;53405;57.012;40.984;2023-02-10T08:02:59;100472.31;;;-2.12;74.95
59391;BME280;53405;57.012;40.984;2023-02-10T08:05:47;100456.41;;;-2.05;74.27
59391;BME280;53405;57.012;40.984;2023-02-10T08:08:36;100459.13;;;-1.92;72.54
59391;BME280;53405;57.012;40.984;2023-02-10T08:11:23;100457.75;;;-1.83;72.72
59391;BME280;53405;57.012;40.984;2023-02-10T08:14:11;100442.50;;;-1.72;73.61
59391;BME280;53405;57.012;40.984;2023-02-10T08:16:59;100432.53;;;-1.78;71.88
59391;BME280;53405;57.012;40.984;2023-02-10T08:19:46;100418.53;;;-1.59;73.50
59391;BME280;53405;57.012;40.984;2023-02-10T08:22:34;100388.19;;;-1.56;70.69
59391;BME280;53405;57.012;40.984;2023-02-10T08:25:22;100419.19;;;-1.56;72.83
59391;BME280;53405;57.012;40.984;2023-02-10T08:28:10;100397.47;;;-1.68;73.28
59391;BME280;53405;57.012;40.984;2023-02-10T08:31:02;100410.25;;;-1.36;72.17
59391;BME280;53405;57.012;40.984;2023-02-10T08:33:50;100379.59;;;-1.56;71.63
59391;BME280;53405;57.012;40.984;2023-02-10T08:36:38;100397.47;;;-1.68;73.07
59391;BME280;53405;57.012;40.984;2023-02-10T08:39:28;100379.50;;;-1.69;71.53
59391;BME280;53405;57.012;40.984;2023-02-10T08:42:16;100371.47;;;-1.79;71.60
59391;BME280;53405;57.012;40.984;2023-02-10T08:45:04;100342.50;;;-1.84;72.56
59391;BME280;53405;57.012;40.984;2023-02-10T08:47:53;100359.16;;;-1.90;71.52
59391;BME280;53405;57.012;40.984;2023-02-10T08:50:40;100344.91;;;-1.67;72.50
59391;BME280;53405;57.012;40.984;2023-02-10T08:53:28;100351.19;;;-1.56;70.79
59391;BME280;53405;57.012;40.984;2023-02-10T08:56:17;100358.66;;;-1.66;71.63
59391;BME280;53405;57.012;40.984;2023-02-10T08:59:05;100346.88;;;-1.70;71.68
59391;BME280;53405;57.012;40.984;2023-02-10T09:01:52;100330.06;;;-1.49;71.19
59391;BME280;53405;57.012;40.984;2023-02-10T09:04:41;100325.19;;;-1.53;71.88
59391;BME280;53405;57.012;40.984;2023-02-10T09:07:29;100336.91;;;-1.62;72.10
59391;BME280;53405;57.012;40.984;2023-02-10T09:10:16;100339.75;;;-1.38;70.57
59391;BME280;53405;57.012;40.984;2023-02-10T09:13:04;100336.44;;;-1.54;71.26
59391;BME280;53405;57.012;40.984;2023-02-10T09:15:52;100336.44;;;-1.40;70.60
59391;BME280;53405;57.012;40.984;2023-02-10T09:18:39;100317.25;;;-1.50;70.50
59391;BME280;53405;57.012;40.984;2023-02-10T09:21:27;100299.25;;;-1.37;69.76
59391;BME280;53405;57.012;40.984;2023-02-10T09:24:31;100282.56;;;-1.60;70.25
59391;BME280;53405;57.012;40.984;2023-02-10T09:27:19;100280.00;;;-1.60;70.79
59391;BME280;53405;57.012;40.984;2023-02-10T09:30:09;100294.00;;;-1.50;70.42
59391;BME280;53405;57.012;40.984;2023-02-10T09:32:56;100276.91;;;-1.67;69.60
59391;BME280;53405;57.012;40.984;2023-02-10T09:35:44;100264.03;;;-1.53;69.54
59391;BME280;53405;57.012;40.984;2023-02-10T09:38:33;100280.72;;;-1.73;70.25
59391;BME280;53405;57.012;40.984;2023-02-10T09:44:31;100274.16;;;-1.93;70.10
59391;BME280;53405;57.012;40.984;2023-02-10T09:47:36;100276.00;;;-1.95;70.67
59391;BME280;53405;57.012;40.984;2023-02-10T09:50:32;100278.22;;;-1.89;71.12
59391;BME280;53405;57.012;40.984;2023-02-10T09:53:26;100273.88;;;-1.74;69.62
59391;BME280;53405;57.012;40.984;2023-02-10T09:56:19;100277.13;;;-1.70;68.88
59391;BME280;53405;57.012;40.984;2023-02-10T09:59:14;100251.75;;;-1.64;69.00
59391;BME280;53405;57.012;40.984;2023-02-10T10:02:21;100264.22;;;-1.70;68.85
59391;BME280;53405;57.012;40.984;2023-02-10T10:11:42;100249.53;;;-1.70;68.09
59391;BME280;53405;57.012;40.984;2023-02-10T10:14:35;100233.31;;;-1.72;68.27
59391;BME280;53405;57.012;40.984;2023-02-10T10:17:56;100208.69;;;-1.77;68.96
59391;BME280;53405;57.012;40.984;2023-02-10T10:21:01;100257.28;;;-1.70;67.53
59391;BME280;53405;57.012;40.984;2023-02-10T10:24:16;100222.69;;;-1.53;67.38
59391;BME280;53405;57.012;40.984;2023-02-10T10:30:10;100187.50;;;-1.41;66.75
59391;BME280;53405;57.012;40.984;2023-02-10T10:33:23;100171.63;;;-1.35;66.64
59391;BME280;53405;57.012;40.984;2023-02-10T10:36:15;100163.00;;;-0.81;67.32
59391;BME280;53405;57.012;40.984;2023-02-10T10:39:11;100183.97;;;-0.85;65.03
59391;BME280;53405;57.012;40.984;2023-02-10T10:42:15;100141.34;;;-1.05;65.99
59391;BME280;53405;57.012;40.984;2023-02-10T10:45:40;100146.31;;;-1.02;66.91
59391;BME280;53405;57.012;40.984;2023-02-10T10:48:31;100120.84;;;-1.08;68.52
59391;BME280;53405;57.012;40.984;2023-02-10T10:51:19;100125.06;;;-1.07;66.78
59391;BME280;53405;57.012;40.984;2023-02-10T10:54:14;100114.53;;;-1.04;66.49
59391;BME280;53405;57.012;40.984;2023-02-10T10:57:05;100095.72;;;-1.06;66.09
59391;BME280;53405;57.012;40.984;2023-02-10T11:00:04;100094.50;;;-1.01;67.69
59391;BME280;53405;57.012;40.984;2023-02-10T11:03:00;100089.13;;;-0.98;67.73
59391;BME280;53405;57.012;40.984;2023-02-10T11:08:58;100099.81;;;-0.77;65.78
59391;BME280;53405;57.012;40.984;2023-02-10T11:11:46;100100.22;;;-0.83;65.23
59391;BME280;53405;57.012;40.984;2023-02-10T11:14:43;100103.22;;;-0.76;65.22
59391;BME280;53405;57.012;40.984;2023-02-10T11:17:36;100106.00;;;-0.79;66.68
59391;BME280;53405;57.012;40.984;2023-02-10T11:20:29;100089.66;;;-0.80;66.11
59391;BME280;53405;57.012;40.984;2023-02-10T11:23:17;100099.09;;;-0.79;64.43
59391;BME280;53405;57.012;40.984;2023-02-10T11:26:06;100091.63;;;-0.83;65.38
59391;BME280;53405;57.012;40.984;2023-02-10T11:29:10;100064.81;;;-0.69;65.31
59391;BME280;53405;57.012;40.984;2023-02-10T11:31:59;100069.03;;;-0.43;64.63
59391;BME280;53405;57.012;40.984;2023-02-10T11:34:48;100042.16;;;-0.40;64.73
59391;BME280;53405;57.012;40.984;2023-02-10T11:37:37;100076.69;;;-0.15;63.43
59391;BME280;53405;57.012;40.984;2023-02-10T11:43:41;100052.84;;;-0.08;63.16
59391;BME280;53405;57.012;40.984;2023-02-10T11:46:30;100039.00;;;0.05;62.78
59391;BME280;53405;57.012;40.984;2023-02-10T11:49:18;100047.47;;;-0.05;62.43
59391;BME280;53405;57.012;40.984;2023-02-10T11:52:06;100036.91;;;-0.14;62.40
59391;BME280;53405;57.012;40.984;2023-02-10T11:54:53;100009.84;;;-0.34;63.47
59391;BME280;53405;57.012;40.984;2023-02-10T11:58:05;100024.69;;;-0.12;62.52
59391;BME280;53405;57.012;40.984;2023-02-10T12:10:33;99986.91;;;-0.65;66.18
59391;BME280;53405;57.012;40.984;2023-02-10T12:22:59;99960.06;;;-0.88;66.62
59391;BME280;53405;57.012;40.984;2023-02-10T12:26:18;99954.94;;;-0.64;66.17
59391;BME280;53405;57.012;40.984;2023-02-10T12:34:57;99953.28;;;-0.65;66.01
59391;BME280;53405;57.012;40.984;2023-02-10T12:41:47;99946.09;;;-0.73;68.04
59391;BME280;53405;57.012;40.984;2023-02-10T12:54:23;99935.66;;;-0.97;66.61
59391;BME280;53405;57.012;40.984;2023-02-10T12:57:58;99933.91;;;-0.83;67.96
59391;BME280;53405;57.012;40.984;2023-02-10T13:10:35;99908.88;;;-0.96;69.06
59391;BME280;53405;57.012;40.984;2023-02-10T13:13:28;99905.56;;;-0.85;68.91
59391;BME280;53405;57.012;40.984;2023-02-10T13:16:18;99912.19;;;-1.06;67.06
59391;BME280;53405;57.012;40.984;2023-02-10T13:23:18;99905.16;;;-1.04;67.43
59391;BME280;53405;57.012;40.984;2023-02-10T13:35:19;99908.19;;;-1.36;69.25
59391;BME280;53405;57.012;40.984;2023-02-10T13:38:14;99883.06;;;-1.47;69.19
59391;BME280;53405;57.012;40.984;2023-02-10T13:41:03;99884.09;;;-1.37;69.30
59391;BME280;53405;57.012;40.984;2023-02-10T13:44:23;99879.53;;;-1.33;68.77
59391;BME280;53405;57.012;40.984;2023-02-10T13:50:41;99866.41;;;-1.30;71.55
59391;BME280;53405;57.012;40.984;2023-02-10T14:02:21;99863.63;;;-1.27;69.20
59391;BME280;53405;57.012;40.984;2023-02-10T14:08:43;99849.78;;;-1.26;69.78
59391;BME280;53405;57.012;40.984;2023-02-10T14:11:46;99854.72;;;-1.36;69.33
59391;BME280;53405;57.012;40.984;2023-02-10T14:14:39;99823.16;;;-1.52;69.66
59391;BME280;53405;57.012;40.984;2023-02-10T14:17:27;99839.66;;;-1.42;69.11
59391;BME280;53405;57.012;40.984;2023-02-10T14:20:24;99863.94;;;-1.19;69.73
59391;BME280;53405;57.012;40.984;2023-02-10T14:23:19;99842.53;;;-1.21;70.18
59391;BME280;53405;57.012;40.984;2023-02-10T14:26:19;99848.00;;;-1.13;69.92
59391;BME280;53405;57.012;40.984;2023-02-10T14:29:13;99857.09;;;-1.07;69.53
59391;BME280;53405;57.012;40.984;2023-02-10T14:32:05;99852.44;;;-1.02;69.26
59391;BME280;53405;57.012;40.984;2023-02-10T14:37:51;99856.50;;;-1.36;69.48
59391;BME280;53405;57.012;40.984;2023-02-10T14:40:39;99860.53;;;-1.32;69.07
59391;BME280;53405;57.012;40.984;2023-02-10T14:43:28;99842.47;;;-1.45;70.01
59391;BME280;53405;57.012;40.984;2023-02-10T14:46:22;99840.47;;;-1.29;71.47
59391;BME280;53405;57.012;40.984;2023-02-10T14:49:16;99812.28;;;-1.44;69.43
59391;BME280;53405;57.012;40.984;2023-02-10T14:52:21;99840.47;;;-1.29;70.17
59391;BME280;53405;57.012;40.984;2023-02-10T14:55:23;99832.94;;;-1.32;69.48
59391;BME280;53405;57.012;40.984;2023-02-10T14:58:13;99835.22;;;-1.40;69.46
59391;BME280;53405;57.012;40.984;2023-02-10T15:01:23;99834.16;;;-1.37;69.24
59391;BME280;53405;57.012;40.984;2023-02-10T15:04:15;99835.34;;;-1.54;69.44
59391;BME280;53405;57.012;40.984;2023-02-10T15:07:04;99845.97;;;-1.46;69.85
59391;BME280;53405;57.012;40.984;2023-02-10T15:09:54;99859.41;;;-1.54;70.55
59391;BME280;53405;57.012;40.984;2023-02-10T15:12:43;99812.41;;;-1.72;70.07
59391;BME280;53405;57.012;40.984;2023-02-10T15:15:45;99865.72;;;-1.45;68.87
59391;BME280;53405;57.012;40.984;2023-02-10T15:18:37;99861.06;;;-1.53;69.90
59391;BME280;53405;57.012;40.984;2023-02-10T15:21:36;99854.56;;;-1.71;69.85
59391;BME280;53405;57.012;40.984;2023-02-10T15:24:30;99850.16;;;-2.09;71.06
59391;BME280;53405;57.012;40.984;2023-02-10T15:27:21;99848.78;;;-1.75;73.01
59391;BME280;53405;57.012;40.984;2023-02-10T15:30:18;99861.03;;;-1.78;71.20
59391;BME280;53405;57.012;40.984;2023-02-10T15:33:19;99848.97;;;-1.65;71.23
59391;BME280;53405;57.012;40.984;2023-02-10T15:42:20;99839.06;;;-1.84;70.56
59391;BME280;53405;57.012;40.984;2023-02-10T15:45:16;99840.59;;;-1.82;70.17
59391;BME280;53405;57.012;40.984;2023-02-10T15:48:08;99827.25;;;-1.75;69.81
59391;BME280;53405;57.012;40.984;2023-02-10T15:51:00;99818.59;;;-1.74;70.62
59391;BME280;53405;57.012;40.984;2023-02-10T15:53:47;99826.66;;;-1.79;70.10
59391;BME280;53405;57.012;40.984;2023-02-10T15:56:35;99797.09;;;-1.88;70.37
59391;BME280;53405;57.012;40.984;2023-02-10T15:59:23;99802.81;;;-1.70;72.16
59391;BME280;53405;57.012;40.984;2023-02-10T16:02:15;99801.03;;;-1.82;70.07
59391;BME280;53405;57.012;40.984;2023-02-10T16:05:02;99809.72;;;-1.70;69.93
59391;BME280;53405;57.012;40.984;2023-02-10T16:07:51;99803.13;;;-1.87;71.33
59391;BME280;53405;57.012;40.984;2023-02-10T16:10:39;99808.28;;;-1.87;71.12
59391;BME280;53405;57.012;40.984;2023-02-10T16:13:26;99812.63;;;-1.75;72.45
59391;BME280;53405;57.012;40.984;2023-02-10T16:16:15;99801.13;;;-1.71;70.14
59391;BME280;53405;57.012;40.984;2023-02-10T16:19:04;99797.03;;;-1.73;71.19
59391;BME280;53405;57.012;40.984;2023-02-10T16:21:52;99799.41;;;-1.57;71.48
59391;BME280;53405;57.012;40.984;2023-02-10T16:24:43;99798.34;;;-1.80;71.56
59391;BME280;53405;57.012;40.984;2023-02-10T16:27:31;99804.66;;;-1.59;70.27
59391;BME280;53405;57.012;40.984;2023-02-10T16:30:24;99800.41;;;-1.60;70.80
59391;BME280;53405;57.012;40.984;2023-02-10T16:33:13;99804.75;;;-1.86;70.76
59391;BME280;53405;57.012;40.984;2023-02-10T16:36:05;99769.75;;;-2.03;71.13
59391;BME280;53405;57.012;40.984;2023-02-10T16:38:58;99793.09;;;-2.05;70.56
59391;BME280;53405;57.012;40.984;2023-02-10T16:41:49;99771.91;;;-2.10;71.09
59391;BME280;53405;57.012;40.984;2023-02-10T16:44:37;99775.03;;;-1.92;72.74